Terminal Aerodrome Forecast
Issued by NWS Goodland, KS

Home | Current Version | Previous Version | Text Only | Print | Product List | Glossary On
Versions: 1 2 3 4 5 6 7 8 9 10 11 12 13 14 15 16 17 18 19 20
000
FTUS43 KGLD 010525
TAFGLD
TAF
KGLD 010525Z 0106/0206 23007KT P6SM BKN150
     FM011400 36014G20KT P6SM SCT250
     FM011900 03009KT P6SM SCT130
     FM020000 VRB05KT P6SM BKN100=

USA.gov is the U.S. government's official web portal to all federal, state and local government web resources and services.